createdAt,value
2018-07-08T10:45:28.478Z,4.78
2018-07-08T10:48:10.868Z,5.53
2018-07-08T10:50:53.958Z,4.42
2018-07-08T10:53:35.988Z,5.03
2018-07-08T10:56:18.489Z,5.28
2018-07-08T10:59:01.456Z,4.80
2018-07-08T11:01:44.621Z,5.25
2018-07-08T11:04:27.804Z,4.50
2018-07-08T11:07:11.204Z,4.58
2018-07-08T11:09:53.904Z,4.15
2018-07-08T11:12:37.525Z,3.58
2018-07-08T11:15:19.969Z,4.17
2018-07-08T11:18:03.149Z,4.42
2018-07-08T11:20:46.035Z,3.80
2018-07-08T11:23:29.136Z,3.90
2018-07-08T11:26:12.162Z,4.08
2018-07-08T11:28:55.232Z,3.83
2018-07-08T11:31:38.210Z,3.30
2018-07-08T11:34:20.493Z,3.95
2018-07-08T11:37:03.543Z,3.40
2018-07-08T11:39:46.088Z,3.65
2018-07-08T11:42:29.055Z,3.60
2018-07-08T11:45:12.186Z,3.92
2018-07-08T11:47:55.086Z,4.00
2018-07-08T11:50:38.124Z,3.55
2018-07-08T11:53:21.102Z,3.67
2018-07-08T11:56:04.506Z,3.30
2018-07-08T11:58:47.383Z,3.98
2018-07-08T12:01:31.085Z,3.47
2018-07-08T12:04:13.346Z,3.72
2018-07-08T12:06:56.151Z,3.15
2018-07-08T12:09:38.810Z,5.17
2018-07-08T12:12:21.271Z,4.62
2018-07-08T12:15:04.065Z,3.25
2018-07-08T12:17:46.980Z,3.15
2018-07-08T12:20:30.961Z,5.58
2018-07-08T12:23:13.295Z,3.98
2018-07-08T12:25:56.343Z,4.05
2018-07-08T12:28:39.531Z,4.35
2018-07-08T12:31:22.971Z,4.62
2018-07-08T12:34:05.846Z,4.03
2018-07-08T12:36:48.681Z,4.08
2018-07-08T12:39:31.012Z,4.00
2018-07-08T12:42:14.166Z,4.60
2018-07-08T12:44:56.402Z,4.37
2018-07-08T12:47:39.346Z,4.55
2018-07-08T12:50:22.514Z,4.20
2018-07-08T12:53:04.908Z,3.60
2018-07-08T12:55:48.398Z,4.03
2018-07-08T12:58:31.248Z,4.08
2018-07-08T13:01:14.550Z,4.22
2018-07-08T13:03:57.107Z,4.10
2018-07-08T13:06:40.482Z,3.90
2018-07-08T13:09:23.004Z,3.70
2018-07-08T13:12:06.242Z,3.92
2018-07-08T13:14:49.199Z,6.60
2018-07-08T13:17:33.174Z,4.00
2018-07-08T13:20:15.988Z,5.05
2018-07-08T13:22:58.801Z,4.60
2018-07-08T13:25:41.730Z,4.53
2018-07-08T13:28:24.597Z,4.17
2018-07-08T13:31:07.822Z,4.72
2018-07-08T13:33:50.604Z,4.50
2018-07-08T13:36:33.680Z,5.25
2018-07-08T13:39:16.375Z,4.55
2018-07-08T13:41:58.991Z,4.40
2018-07-08T13:44:41.455Z,4.45
2018-07-08T13:47:24.440Z,4.05
2018-07-08T13:50:07.453Z,3.92
2018-07-08T13:52:51.844Z,4.08
2018-07-08T13:55:34.933Z,4.90
2018-07-08T13:58:17.863Z,5.00
2018-07-08T14:01:08.893Z,4.65
2018-07-08T14:03:51.930Z,4.58
2018-07-08T14:06:34.777Z,4.62
2018-07-08T14:09:17.139Z,4.50
2018-07-08T14:12:00.484Z,4.33
2018-07-08T14:14:43.396Z,3.92
2018-07-08T14:17:26.391Z,4.15
2018-07-08T14:20:09.113Z,4.25
2018-07-08T14:22:51.852Z,4.22
2018-07-08T14:25:34.770Z,3.92
2018-07-08T14:28:17.956Z,4.20
2018-07-08T14:31:00.727Z,4.05
2018-07-08T14:33:43.332Z,5.12
2018-07-08T14:36:26.386Z,3.92
2018-07-08T14:39:09.679Z,4.80
2018-07-08T14:41:52.638Z,4.30
2018-07-08T14:44:35.160Z,4.10
2018-07-08T14:47:17.907Z,4.22
2018-07-08T14:50:00.621Z,4.20
2018-07-08T14:52:43.859Z,4.60
2018-07-08T14:55:26.028Z,4.87
2018-07-08T14:58:08.367Z,4.53
2018-07-08T15:00:51.519Z,4.40
2018-07-08T15:03:34.759Z,3.92
2018-07-08T15:06:17.714Z,4.40
2018-07-08T15:09:08.125Z,4.10
2018-07-08T15:11:50.677Z,4.55
2018-07-08T15:14:33.928Z,4.58
2018-07-08T15:17:16.778Z,5.17
2018-07-08T15:19:59.997Z,4.10
2018-07-08T15:22:43.325Z,4.78
2018-07-08T15:25:26.169Z,5.30
2018-07-08T15:28:09.161Z,4.90
2018-07-08T15:30:52.625Z,4.60
2018-07-08T15:33:35.743Z,4.30
2018-07-08T15:36:18.494Z,4.42
2018-07-08T15:39:01.697Z,4.47
2018-07-08T15:41:45.306Z,5.17
2018-07-08T15:44:29.025Z,4.75
2018-07-08T15:47:11.427Z,4.75
2018-07-08T15:49:54.772Z,5.12
2018-07-08T15:52:37.573Z,4.58
2018-07-08T15:55:20.422Z,4.80
2018-07-08T15:58:03.107Z,4.78
2018-07-08T16:00:46.443Z,5.40
2018-07-08T16:03:29.388Z,5.87
2018-07-08T16:06:12.129Z,5.78
2018-07-08T16:08:55.057Z,5.22
2018-07-08T16:11:37.425Z,4.87
2018-07-08T16:14:19.799Z,5.30
2018-07-08T16:17:02.824Z,5.80
2018-07-08T16:19:45.855Z,5.75
2018-07-08T16:22:28.704Z,5.15
2018-07-08T16:25:11.805Z,5.28
2018-07-08T16:27:54.845Z,5.35
2018-07-08T16:30:38.104Z,5.30
2018-07-08T16:33:21.229Z,5.45
2018-07-08T16:36:04.666Z,5.22
2018-07-08T16:38:47.549Z,6.05
2018-07-08T16:41:29.861Z,5.10
2018-07-08T16:44:13.024Z,4.90
2018-07-08T16:46:56.053Z,4.87
2018-07-08T16:49:39.066Z,5.53
2018-07-08T16:52:22.357Z,5.10
2018-07-08T16:55:05.267Z,5.42
2018-07-08T16:57:48.098Z,5.60
2018-07-08T17:00:31.145Z,5.17
2018-07-08T17:03:14.269Z,5.30
2018-07-08T17:05:57.355Z,5.25
2018-07-08T17:08:40.285Z,5.33
2018-07-08T17:11:22.539Z,5.58
2018-07-08T17:14:05.255Z,5.10
2018-07-08T17:16:48.537Z,5.40
2018-07-08T17:19:31.123Z,4.55
2018-07-08T17:22:16.035Z,5.40
2018-07-08T17:24:59.144Z,4.80
2018-07-08T17:27:42.577Z,4.67
2018-07-08T17:30:24.993Z,5.28
2018-07-08T17:33:08.392Z,5.03
2018-07-08T17:35:51.267Z,4.47
2018-07-08T17:38:34.192Z,5.22
2018-07-08T17:41:17.123Z,4.35
2018-07-08T17:44:00.494Z,5.25
2018-07-08T17:46:43.312Z,4.80
2018-07-08T17:49:26.037Z,4.97
2018-07-08T17:52:09.272Z,5.60
2018-07-08T17:54:52.760Z,6.47
2018-07-08T17:57:35.707Z,7.12
2018-07-08T18:00:18.543Z,6.72
2018-07-08T18:03:01.371Z,7.60
2018-07-08T18:05:44.138Z,7.17
2018-07-08T18:08:27.253Z,6.47
2018-07-08T18:11:10.032Z,6.30
2018-07-08T18:13:53.461Z,6.77
2018-07-08T18:16:36.842Z,7.83
2018-07-08T18:19:19.703Z,7.97
2018-07-08T18:22:02.857Z,7.47
2018-07-08T18:24:45.774Z,7.93
2018-07-08T18:27:28.610Z,7.87
2018-07-08T18:30:11.420Z,7.60
2018-07-08T18:32:54.473Z,7.50
2018-07-08T18:35:37.688Z,8.03
2018-07-08T18:38:20.945Z,9.17
2018-07-08T18:41:05.010Z,8.10
2018-07-08T18:43:48.282Z,8.23
2018-07-08T18:46:32.005Z,7.80
2018-07-08T18:49:15.100Z,8.80
2018-07-08T18:52:00.477Z,8.30
2018-07-08T18:54:47.482Z,7.90
2018-07-08T18:57:31.390Z,8.93
2018-07-08T19:00:15.229Z,7.73
2018-07-08T19:03:15.371Z,8.67
2018-07-08T19:05:58.252Z,7.93
2018-07-08T19:08:43.838Z,7.90
2018-07-08T19:11:27.196Z,8.40
2018-07-08T19:14:10.653Z,8.40
2018-07-08T19:16:54.365Z,8.30
2018-07-08T19:19:37.389Z,8.60
2018-07-08T19:22:20.879Z,8.70
2018-07-08T19:25:11.558Z,8.93
2018-07-08T19:27:54.657Z,8.70
2018-07-08T19:30:38.120Z,9.00
2018-07-08T19:33:20.838Z,8.97
2018-07-08T19:36:04.795Z,8.60
2018-07-08T19:38:47.374Z,8.93
2018-07-08T19:41:30.104Z,8.73
2018-07-08T19:44:13.177Z,8.73
2018-07-08T19:46:55.894Z,8.30
2018-07-08T19:49:38.927Z,8.70
2018-07-08T19:52:22.094Z,8.40
2018-07-08T19:55:05.160Z,8.57
2018-07-08T19:57:47.636Z,6.70
2018-07-08T20:00:30.404Z,8.03
2018-07-08T20:03:13.665Z,7.30
2018-07-08T20:05:56.829Z,7.27
2018-07-08T20:08:39.740Z,7.47
2018-07-08T20:11:22.307Z,7.20
2018-07-08T20:14:05.439Z,6.80
2018-07-08T20:16:48.996Z,6.50
2018-07-08T20:19:32.363Z,6.80
2018-07-08T20:22:15.022Z,6.50
2018-07-08T20:24:58.073Z,7.00
2018-07-08T20:27:41.085Z,5.80
2018-07-08T20:30:24.182Z,5.10
2018-07-08T20:33:07.031Z,5.00
2018-07-08T20:35:50.450Z,5.03
2018-07-08T20:38:34.221Z,4.73
2018-07-08T20:41:17.144Z,4.57
2018-07-08T20:43:59.937Z,4.80
2018-07-08T20:46:43.643Z,4.80
2018-07-08T20:49:27.369Z,5.20
2018-07-08T20:52:10.296Z,5.00
2018-07-08T20:54:53.419Z,4.90
2018-07-08T20:57:36.171Z,4.83
2018-07-08T21:00:19.112Z,4.80
2018-07-08T21:03:02.311Z,4.83
2018-07-08T21:05:45.073Z,4.90
2018-07-08T21:08:27.781Z,5.17
2018-07-08T21:11:10.882Z,4.97
2018-07-08T21:13:54.226Z,4.77
2018-07-08T21:16:37.141Z,4.30
2018-07-08T21:19:19.400Z,4.80
2018-07-08T21:22:02.283Z,4.43
2018-07-08T21:24:45.069Z,4.60
2018-07-08T21:27:28.033Z,4.13
2018-07-08T21:30:11.171Z,4.17
2018-07-08T21:32:54.543Z,4.70
2018-07-08T21:35:37.642Z,3.80
2018-07-08T21:38:20.151Z,4.03
2018-07-08T21:41:03.184Z,4.07
2018-07-08T21:43:45.961Z,3.60
2018-07-08T21:46:28.938Z,3.40
2018-07-08T21:49:11.571Z,3.30
2018-07-08T21:51:54.671Z,3.30
2018-07-08T21:54:37.653Z,2.80
2018-07-08T21:57:20.654Z,3.77
2018-07-08T22:00:03.411Z,3.20
2018-07-08T22:02:46.260Z,3.20
2018-07-08T22:05:30.214Z,3.40
2018-07-08T22:08:12.914Z,3.20
2018-07-08T22:10:55.993Z,3.40
2018-07-08T22:13:39.633Z,3.40
2018-07-08T22:16:22.675Z,3.10
2018-07-08T22:19:05.859Z,3.10
2018-07-08T22:21:48.720Z,2.90
2018-07-08T22:24:31.608Z,3.10
2018-07-08T22:27:13.790Z,2.93
2018-07-08T22:29:55.954Z,3.30
2018-07-08T22:32:38.195Z,3.33
2018-07-08T22:35:20.985Z,2.90
2018-07-08T22:38:04.241Z,2.87
2018-07-08T22:40:47.106Z,3.30
2018-07-08T22:43:30.232Z,2.70
2018-07-08T22:46:13.146Z,3.10
2018-07-08T22:48:55.616Z,2.73
2018-07-08T22:51:38.524Z,2.70
2018-07-08T22:54:21.342Z,2.87
2018-07-08T22:57:07.492Z,3.03
2018-07-08T23:00:01.098Z,3.20
2018-07-08T23:02:46.655Z,3.10
2018-07-08T23:05:29.696Z,3.03
2018-07-08T23:08:12.761Z,3.10
2018-07-08T23:10:56.169Z,3.47
2018-07-08T23:13:39.291Z,3.93
2018-07-08T23:16:23.042Z,2.67
2018-07-08T23:19:12.016Z,3.00
2018-07-08T23:21:54.320Z,3.00
2018-07-08T23:24:37.161Z,2.70
2018-07-08T23:27:20.185Z,2.70
2018-07-08T23:30:03.320Z,2.80
2018-07-08T23:32:46.290Z,3.17
2018-07-08T23:35:29.343Z,3.30
2018-07-08T23:38:12.320Z,3.10
2018-07-08T23:40:55.113Z,3.13
2018-07-08T23:43:37.916Z,3.00
2018-07-08T23:46:20.828Z,3.30
2018-07-08T23:49:03.982Z,2.80
2018-07-08T23:51:46.855Z,2.80
2018-07-08T23:54:29.976Z,2.80
2018-07-08T23:57:12.728Z,3.00
2018-07-08T23:59:56.016Z,2.83
